sensor_id;sensor_type;location;lat;lon;timestamp;P1;durP1;ratioP1;P2;durP2;ratioP2
18983;SDS011;9626;52.552;13.436;2023-02-11T00:01:05;47.07;;;24.80;;
18983;SDS011;9626;52.552;13.436;2023-02-11T00:03:50;44.77;;;26.97;;
18983;SDS011;9626;52.552;13.436;2023-02-11T00:06:35;44.70;;;26.20;;
18983;SDS011;9626;52.552;13.436;2023-02-11T00:09:20;46.47;;;26.77;;
18983;SDS011;9626;52.552;13.436;2023-02-11T00:12:04;46.60;;;26.73;;
18983;SDS011;9626;52.552;13.436;2023-02-11T00:14:49;47.07;;;26.87;;
18983;SDS011;9626;52.552;13.436;2023-02-11T00:17:34;45.63;;;26.97;;
18983;SDS011;9626;52.552;13.436;2023-02-11T00:20:18;48.60;;;26.93;;
18983;SDS011;9626;52.552;13.436;2023-02-11T00:23:03;43.50;;;25.67;;
18983;SDS011;9626;52.552;13.436;2023-02-11T00:25:47;43.17;;;26.03;;
18983;SDS011;9626;52.552;13.436;2023-02-11T00:28:31;47.67;;;26.20;;
18983;SDS011;9626;52.552;13.436;2023-02-11T00:31:16;49.13;;;26.37;;
18983;SDS011;9626;52.552;13.436;2023-02-11T00:33:44;48.37;;;26.27;;
18983;SDS011;9626;52.552;13.436;2023-02-11T00:36:13;45.60;;;26.07;;
18983;SDS011;9626;52.552;13.436;2023-02-11T00:38:44;47.33;;;26.40;;
18983;SDS011;9626;52.552;13.436;2023-02-11T00:41:11;48.53;;;25.67;;
18983;SDS011;9626;52.552;13.436;2023-02-11T00:43:39;46.27;;;25.83;;
18983;SDS011;9626;52.552;13.436;2023-02-11T00:46:06;42.87;;;26.67;;
18983;SDS011;9626;52.552;13.436;2023-02-11T00:48:36;43.83;;;26.90;;
18983;SDS011;9626;52.552;13.436;2023-02-11T00:51:02;47.53;;;26.70;;
18983;SDS011;9626;52.552;13.436;2023-02-11T00:53:29;45.43;;;26.50;;
18983;SDS011;9626;52.552;13.436;2023-02-11T00:55:56;49.37;;;27.23;;
18983;SDS011;9626;52.552;13.436;2023-02-11T00:58:22;44.00;;;26.30;;
18983;SDS011;9626;52.552;13.436;2023-02-11T01:00:52;44.60;;;24.57;;
18983;SDS011;9626;52.552;13.436;2023-02-11T01:03:20;42.10;;;26.27;;
18983;SDS011;9626;52.552;13.436;2023-02-11T01:05:49;41.33;;;25.70;;
18983;SDS011;9626;52.552;13.436;2023-02-11T01:08:15;40.30;;;26.40;;
18983;SDS011;9626;52.552;13.436;2023-02-11T01:10:44;33.60;;;20.20;;
18983;SDS011;9626;52.552;13.436;2023-02-11T01:13:10;45.20;;;27.60;;
18983;SDS011;9626;52.552;13.436;2023-02-11T01:15:37;41.73;;;26.03;;
18983;SDS011;9626;52.552;13.436;2023-02-11T01:18:03;48.97;;;27.10;;
18983;SDS011;9626;52.552;13.436;2023-02-11T01:20:31;44.73;;;26.27;;
18983;SDS011;9626;52.552;13.436;2023-02-11T01:22:57;37.77;;;22.20;;
18983;SDS011;9626;52.552;13.436;2023-02-11T01:25:23;46.17;;;27.00;;
18983;SDS011;9626;52.552;13.436;2023-02-11T01:27:49;46.23;;;25.90;;
18983;SDS011;9626;52.552;13.436;2023-02-11T01:30:15;43.07;;;26.47;;
18983;SDS011;9626;52.552;13.436;2023-02-11T01:32:41;47.50;;;26.70;;
18983;SDS011;9626;52.552;13.436;2023-02-11T01:35:07;42.70;;;25.83;;
18983;SDS011;9626;52.552;13.436;2023-02-11T01:37:33;41.77;;;24.23;;
18983;SDS011;9626;52.552;13.436;2023-02-11T01:40:02;39.30;;;24.97;;
18983;SDS011;9626;52.552;13.436;2023-02-11T01:42:30;43.47;;;24.80;;
18983;SDS011;9626;52.552;13.436;2023-02-11T01:44:58;42.93;;;26.23;;
18983;SDS011;9626;52.552;13.436;2023-02-11T01:47:26;47.93;;;27.27;;
18983;SDS011;9626;52.552;13.436;2023-02-11T01:49:56;38.77;;;23.20;;
18983;SDS011;9626;52.552;13.436;2023-02-11T01:52:29;46.53;;;25.73;;
18983;SDS011;9626;52.552;13.436;2023-02-11T01:55:04;47.10;;;26.37;;
18983;SDS011;9626;52.552;13.436;2023-02-11T01:57:56;40.70;;;25.40;;
18983;SDS011;9626;52.552;13.436;2023-02-11T02:00:32;43.23;;;26.20;;
18983;SDS011;9626;52.552;13.436;2023-02-11T02:03:04;39.37;;;22.13;;
18983;SDS011;9626;52.552;13.436;2023-02-11T02:05:46;48.57;;;26.70;;
18983;SDS011;9626;52.552;13.436;2023-02-11T02:11:28;43.80;;;26.50;;
18983;SDS011;9626;52.552;13.436;2023-02-11T02:13:55;44.47;;;27.73;;
18983;SDS011;9626;52.552;13.436;2023-02-11T02:16:25;41.93;;;26.07;;
18983;SDS011;9626;52.552;13.436;2023-02-11T02:24:58;46.83;;;27.57;;
18983;SDS011;9626;52.552;13.436;2023-02-11T02:27:48;42.97;;;24.63;;
18983;SDS011;9626;52.552;13.436;2023-02-11T02:36:32;40.23;;;25.80;;
18983;SDS011;9626;52.552;13.436;2023-02-11T02:39:13;41.67;;;26.43;;
18983;SDS011;9626;52.552;13.436;2023-02-11T02:41:45;45.20;;;27.53;;
18983;SDS011;9626;52.552;13.436;2023-02-11T02:44:13;45.93;;;26.90;;
18983;SDS011;9626;52.552;13.436;2023-02-11T02:46:39;41.20;;;26.87;;
18983;SDS011;9626;52.552;13.436;2023-02-11T02:49:05;44.27;;;27.07;;
18983;SDS011;9626;52.552;13.436;2023-02-11T03:08:33;50.93;;;29.97;;
18983;SDS011;9626;52.552;13.436;2023-02-11T03:11:04;46.97;;;28.67;;
18983;SDS011;9626;52.552;13.436;2023-02-11T03:13:35;45.67;;;30.03;;
18983;SDS011;9626;52.552;13.436;2023-02-11T03:16:11;47.27;;;31.30;;
18983;SDS011;9626;52.552;13.436;2023-02-11T03:18:41;45.07;;;27.90;;
18983;SDS011;9626;52.552;13.436;2023-02-11T03:21:12;47.13;;;29.80;;
18983;SDS011;9626;52.552;13.436;2023-02-11T03:23:43;48.80;;;29.80;;
18983;SDS011;9626;52.552;13.436;2023-02-11T03:28:59;49.63;;;29.27;;
18983;SDS011;9626;52.552;13.436;2023-02-11T03:39:37;42.43;;;26.37;;
18983;SDS011;9626;52.552;13.436;2023-02-11T03:42:05;49.30;;;29.70;;
18983;SDS011;9626;52.552;13.436;2023-02-11T03:44:36;44.10;;;29.33;;
18983;SDS011;9626;52.552;13.436;2023-02-11T03:47:09;44.17;;;28.17;;
18983;SDS011;9626;52.552;13.436;2023-02-11T03:49:38;42.90;;;29.63;;
18983;SDS011;9626;52.552;13.436;2023-02-11T03:52:07;47.10;;;29.87;;
18983;SDS011;9626;52.552;13.436;2023-02-11T03:54:35;47.73;;;30.10;;
18983;SDS011;9626;52.552;13.436;2023-02-11T03:57:06;44.97;;;29.07;;
18983;SDS011;9626;52.552;13.436;2023-02-11T03:59:48;47.67;;;29.20;;
18983;SDS011;9626;52.552;13.436;2023-02-11T04:02:15;47.57;;;30.23;;
18983;SDS011;9626;52.552;13.436;2023-02-11T04:04:41;46.43;;;28.80;;
18983;SDS011;9626;52.552;13.436;2023-02-11T04:07:08;48.23;;;30.80;;
18983;SDS011;9626;52.552;13.436;2023-02-11T04:09:34;49.97;;;32.23;;
18983;SDS011;9626;52.552;13.436;2023-02-11T04:12:01;51.50;;;32.00;;
18983;SDS011;9626;52.552;13.436;2023-02-11T04:14:27;50.10;;;31.47;;
18983;SDS011;9626;52.552;13.436;2023-02-11T04:16:53;50.13;;;29.93;;
18983;SDS011;9626;52.552;13.436;2023-02-11T04:19:19;47.03;;;31.20;;
18983;SDS011;9626;52.552;13.436;2023-02-11T04:21:45;53.30;;;32.90;;
18983;SDS011;9626;52.552;13.436;2023-02-11T04:24:12;49.97;;;31.27;;
18983;SDS011;9626;52.552;13.436;2023-02-11T04:26:38;49.40;;;29.77;;
18983;SDS011;9626;52.552;13.436;2023-02-11T04:29:04;52.13;;;32.03;;
18983;SDS011;9626;52.552;13.436;2023-02-11T04:31:30;49.70;;;32.73;;
18983;SDS011;9626;52.552;13.436;2023-02-11T04:33:56;53.87;;;32.77;;
18983;SDS011;9626;52.552;13.436;2023-02-11T04:36:22;48.87;;;32.90;;
18983;SDS011;9626;52.552;13.436;2023-02-11T04:38:48;54.80;;;32.30;;
18983;SDS011;9626;52.552;13.436;2023-02-11T04:41:14;47.73;;;32.20;;
18983;SDS011;9626;52.552;13.436;2023-02-11T04:43:40;52.80;;;33.83;;
18983;SDS011;9626;52.552;13.436;2023-02-11T04:46:06;50.30;;;31.07;;
18983;SDS011;9626;52.552;13.436;2023-02-11T04:48:32;50.83;;;32.53;;
18983;SDS011;9626;52.552;13.436;2023-02-11T04:50:59;54.70;;;31.77;;
18983;SDS011;9626;52.552;13.436;2023-02-11T04:53:26;56.33;;;34.33;;
18983;SDS011;9626;52.552;13.436;2023-02-11T04:55:52;53.33;;;34.63;;
18983;SDS011;9626;52.552;13.436;2023-02-11T04:58:18;53.27;;;32.97;;
18983;SDS011;9626;52.552;13.436;2023-02-11T05:00:45;54.07;;;34.20;;
18983;SDS011;9626;52.552;13.436;2023-02-11T05:03:11;52.07;;;33.70;;
18983;SDS011;9626;52.552;13.436;2023-02-11T05:05:38;54.43;;;33.40;;
18983;SDS011;9626;52.552;13.436;2023-02-11T05:08:05;57.03;;;34.33;;
18983;SDS011;9626;52.552;13.436;2023-02-11T05:10:33;56.27;;;34.60;;
18983;SDS011;9626;52.552;13.436;2023-02-11T05:12:59;56.60;;;33.87;;
18983;SDS011;9626;52.552;13.436;2023-02-11T05:15:25;54.03;;;33.53;;
18983;SDS011;9626;52.552;13.436;2023-02-11T05:17:51;53.70;;;29.37;;
18983;SDS011;9626;52.552;13.436;2023-02-11T05:20:18;51.63;;;34.00;;
18983;SDS011;9626;52.552;13.436;2023-02-11T05:22:44;52.97;;;33.30;;
18983;SDS011;9626;52.552;13.436;2023-02-11T05:25:11;53.63;;;31.93;;
18983;SDS011;9626;52.552;13.436;2023-02-11T05:27:37;52.50;;;34.10;;
18983;SDS011;9626;52.552;13.436;2023-02-11T05:30:04;55.93;;;34.00;;
18983;SDS011;9626;52.552;13.436;2023-02-11T05:32:31;54.03;;;34.80;;
18983;SDS011;9626;52.552;13.436;2023-02-11T05:34:57;56.90;;;34.83;;
18983;SDS011;9626;52.552;13.436;2023-02-11T05:37:23;56.73;;;35.47;;
18983;SDS011;9626;52.552;13.436;2023-02-11T05:39:49;55.50;;;36.07;;
18983;SDS011;9626;52.552;13.436;2023-02-11T05:42:15;51.60;;;34.97;;
18983;SDS011;9626;52.552;13.436;2023-02-11T05:44:41;55.83;;;33.87;;
18983;SDS011;9626;52.552;13.436;2023-02-11T05:47:07;55.27;;;32.70;;
18983;SDS011;9626;52.552;13.436;2023-02-11T05:49:33;60.43;;;37.40;;
18983;SDS011;9626;52.552;13.436;2023-02-11T05:52:00;59.00;;;37.03;;
18983;SDS011;9626;52.552;13.436;2023-02-11T05:54:26;56.40;;;36.47;;
18983;SDS011;9626;52.552;13.436;2023-02-11T05:56:52;53.97;;;34.30;;
18983;SDS011;9626;52.552;13.436;2023-02-11T05:59:18;59.67;;;37.83;;
18983;SDS011;9626;52.552;13.436;2023-02-11T06:01:44;56.07;;;34.57;;
18983;SDS011;9626;52.552;13.436;2023-02-11T06:04:10;60.00;;;39.37;;
18983;SDS011;9626;52.552;13.436;2023-02-11T06:06:36;57.70;;;36.73;;
18983;SDS011;9626;52.552;13.436;2023-02-11T06:09:03;62.17;;;37.87;;
18983;SDS011;9626;52.552;13.436;2023-02-11T06:11:29;62.77;;;38.67;;
18983;SDS011;9626;52.552;13.436;2023-02-11T06:13:55;64.37;;;39.37;;
18983;SDS011;9626;52.552;13.436;2023-02-11T06:16:21;55.03;;;35.93;;
18983;SDS011;9626;52.552;13.436;2023-02-11T06:18:47;57.90;;;37.67;;
18983;SDS011;9626;52.552;13.436;2023-02-11T06:21:13;61.53;;;36.20;;
18983;SDS011;9626;52.552;13.436;2023-02-11T06:23:39;58.33;;;37.27;;
18983;SDS011;9626;52.552;13.436;2023-02-11T06:26:06;60.90;;;37.90;;
18983;SDS011;9626;52.552;13.436;2023-02-11T06:28:33;63.27;;;36.80;;
18983;SDS011;9626;52.552;13.436;2023-02-11T06:31:04;66.33;;;37.77;;
18983;SDS011;9626;52.552;13.436;2023-02-11T06:33:31;55.83;;;37.10;;
18983;SDS011;9626;52.552;13.436;2023-02-11T06:35:59;65.30;;;38.47;;
18983;SDS011;9626;52.552;13.436;2023-02-11T06:38:25;59.03;;;36.37;;
18983;SDS011;9626;52.552;13.436;2023-02-11T06:40:51;53.53;;;30.50;;
18983;SDS011;9626;52.552;13.436;2023-02-11T06:43:17;58.63;;;35.63;;
18983;SDS011;9626;52.552;13.436;2023-02-11T06:45:43;63.37;;;37.80;;
18983;SDS011;9626;52.552;13.436;2023-02-11T06:48:09;57.53;;;37.80;;
18983;SDS011;9626;52.552;13.436;2023-02-11T06:50:36;59.50;;;36.87;;
18983;SDS011;9626;52.552;13.436;2023-02-11T06:53:02;61.67;;;38.20;;
18983;SDS011;9626;52.552;13.436;2023-02-11T06:55:28;71.43;;;40.77;;
18983;SDS011;9626;52.552;13.436;2023-02-11T06:57:54;60.27;;;37.87;;
18983;SDS011;9626;52.552;13.436;2023-02-11T07:00:20;64.60;;;37.73;;
18983;SDS011;9626;52.552;13.436;2023-02-11T07:02:46;61.60;;;39.87;;
18983;SDS011;9626;52.552;13.436;2023-02-11T07:05:12;59.43;;;39.03;;
18983;SDS011;9626;52.552;13.436;2023-02-11T07:07:38;61.20;;;35.27;;
18983;SDS011;9626;52.552;13.436;2023-02-11T07:10:04;59.60;;;33.17;;
18983;SDS011;9626;52.552;13.436;2023-02-11T07:12:31;59.97;;;36.00;;
18983;SDS011;9626;52.552;13.436;2023-02-11T07:14:57;64.60;;;40.47;;
18983;SDS011;9626;52.552;13.436;2023-02-11T07:17:23;60.23;;;36.83;;
18983;SDS011;9626;52.552;13.436;2023-02-11T07:19:49;65.20;;;39.80;;
18983;SDS011;9626;52.552;13.436;2023-02-11T07:22:15;67.37;;;36.17;;
18983;SDS011;9626;52.552;13.436;2023-02-11T07:24:41;59.97;;;35.27;;
18983;SDS011;9626;52.552;13.436;2023-02-11T07:27:07;60.90;;;37.23;;
18983;SDS011;9626;52.552;13.436;2023-02-11T07:29:33;60.40;;;39.87;;
18983;SDS011;9626;52.552;13.436;2023-02-11T07:31:59;67.80;;;41.07;;
18983;SDS011;9626;52.552;13.436;2023-02-11T07:34:25;63.83;;;37.33;;
18983;SDS011;9626;52.552;13.436;2023-02-11T07:36:51;65.97;;;37.40;;
18983;SDS011;9626;52.552;13.436;2023-02-11T07:39:17;66.60;;;38.17;;
18983;SDS011;9626;52.552;13.436;2023-02-11T07:41:44;62.50;;;38.33;;
18983;SDS011;9626;52.552;13.436;2023-02-11T07:44:12;62.13;;;35.33;;
18983;SDS011;9626;52.552;13.436;2023-02-11T07:46:38;64.87;;;39.80;;
18983;SDS011;9626;52.552;13.436;2023-02-11T07:49:07;65.33;;;39.37;;
18983;SDS011;9626;52.552;13.436;2023-02-11T07:51:33;60.13;;;38.27;;
18983;SDS011;9626;52.552;13.436;2023-02-11T07:53:59;59.37;;;33.73;;
18983;SDS011;9626;52.552;13.436;2023-02-11T07:56:26;67.30;;;40.33;;
18983;SDS011;9626;52.552;13.436;2023-02-11T07:58:54;62.53;;;38.57;;
18983;SDS011;9626;52.552;13.436;2023-02-11T08:01:22;64.40;;;38.27;;
18983;SDS011;9626;52.552;13.436;2023-02-11T08:03:51;63.33;;;36.27;;
18983;SDS011;9626;52.552;13.436;2023-02-11T08:06:19;59.33;;;36.80;;
18983;SDS011;9626;52.552;13.436;2023-02-11T08:08:46;62.83;;;38.67;;
18983;SDS011;9626;52.552;13.436;2023-02-11T08:11:17;59.10;;;37.27;;
18983;SDS011;9626;52.552;13.436;2023-02-11T08:13:45;57.13;;;32.60;;
18983;SDS011;9626;52.552;13.436;2023-02-11T08:16:18;63.37;;;38.70;;
18983;SDS011;9626;52.552;13.436;2023-02-11T08:18:49;61.23;;;37.00;;
18983;SDS011;9626;52.552;13.436;2023-02-11T08:21:16;64.30;;;38.30;;
18983;SDS011;9626;52.552;13.436;2023-02-11T08:23:43;61.23;;;32.53;;
18983;SDS011;9626;52.552;13.436;2023-02-11T08:26:11;63.67;;;38.83;;
18983;SDS011;9626;52.552;13.436;2023-02-11T08:28:40;63.77;;;37.27;;
18983;SDS011;9626;52.552;13.436;2023-02-11T08:31:09;65.90;;;40.07;;
18983;SDS011;9626;52.552;13.436;2023-02-11T08:33:40;62.43;;;39.07;;
18983;SDS011;9626;52.552;13.436;2023-02-11T08:36:10;64.47;;;38.23;;
18983;SDS011;9626;52.552;13.436;2023-02-11T08:38:38;67.70;;;38.37;;
18983;SDS011;9626;52.552;13.436;2023-02-11T08:41:04;60.77;;;37.27;;
18983;SDS011;9626;52.552;13.436;2023-02-11T08:43:31;64.10;;;37.63;;
18983;SDS011;9626;52.552;13.436;2023-02-11T08:45:58;58.50;;;37.93;;
18983;SDS011;9626;52.552;13.436;2023-02-11T08:48:25;65.03;;;39.10;;
18983;SDS011;9626;52.552;13.436;2023-02-11T08:50:53;62.50;;;38.53;;
18983;SDS011;9626;52.552;13.436;2023-02-11T08:53:20;60.87;;;37.17;;
18983;SDS011;9626;52.552;13.436;2023-02-11T08:55:47;62.63;;;37.93;;
18983;SDS011;9626;52.552;13.436;2023-02-11T08:58:14;60.60;;;36.77;;
18983;SDS011;9626;52.552;13.436;2023-02-11T09:00:40;61.50;;;38.70;;
18983;SDS011;9626;52.552;13.436;2023-02-11T09:03:08;65.20;;;39.70;;
18983;SDS011;9626;52.552;13.436;2023-02-11T09:05:38;60.47;;;37.47;;
18983;SDS011;9626;52.552;13.436;2023-02-11T09:08:05;62.67;;;36.97;;
18983;SDS011;9626;52.552;13.436;2023-02-11T09:10:31;65.40;;;38.27;;
18983;SDS011;9626;52.552;13.436;2023-02-11T09:12:57;60.60;;;36.03;;
18983;SDS011;9626;52.552;13.436;2023-02-11T09:15:23;62.60;;;35.77;;
18983;SDS011;9626;52.552;13.436;2023-02-11T09:17:49;58.37;;;35.43;;
18983;SDS011;9626;52.552;13.436;2023-02-11T09:20:15;54.10;;;33.87;;
18983;SDS011;9626;52.552;13.436;2023-02-11T09:22:42;55.03;;;35.00;;
18983;SDS011;9626;52.552;13.436;2023-02-11T09:25:08;58.20;;;34.53;;
18983;SDS011;9626;52.552;13.436;2023-02-11T09:27:34;56.80;;;35.50;;
18983;SDS011;9626;52.552;13.436;2023-02-11T09:30:00;57.13;;;36.17;;
18983;SDS011;9626;52.552;13.436;2023-02-11T09:32:26;57.43;;;35.03;;
18983;SDS011;9626;52.552;13.436;2023-02-11T09:34:52;57.13;;;35.47;;
18983;SDS011;9626;52.552;13.436;2023-02-11T09:37:18;56.80;;;33.77;;
18983;SDS011;9626;52.552;13.436;2023-02-11T09:39:44;60.33;;;35.67;;
18983;SDS011;9626;52.552;13.436;2023-02-11T09:42:27;55.37;;;34.63;;
18983;SDS011;9626;52.552;13.436;2023-02-11T09:45:19;57.60;;;34.93;;
18983;SDS011;9626;52.552;13.436;2023-02-11T09:47:49;53.27;;;34.47;;
18983;SDS011;9626;52.552;13.436;2023-02-11T09:50:34;53.07;;;33.57;;
18983;SDS011;9626;52.552;13.436;2023-02-11T09:55:41;52.63;;;32.80;;
18983;SDS011;9626;52.552;13.436;2023-02-11T09:58:13;54.80;;;34.47;;
18983;SDS011;9626;52.552;13.436;2023-02-11T10:00:47;56.20;;;35.73;;
18983;SDS011;9626;52.552;13.436;2023-02-11T10:03:25;53.13;;;34.17;;
18983;SDS011;9626;52.552;13.436;2023-02-11T10:06:21;54.27;;;33.50;;
18983;SDS011;9626;52.552;13.436;2023-02-11T10:28:09;51.10;;;32.20;;
18983;SDS011;9626;52.552;13.436;2023-02-11T10:30:40;51.30;;;32.03;;
18983;SDS011;9626;52.552;13.436;2023-02-11T10:33:29;52.63;;;30.20;;
18983;SDS011;9626;52.552;13.436;2023-02-11T10:36:02;54.60;;;32.93;;
18983;SDS011;9626;52.552;13.436;2023-02-11T10:38:28;54.80;;;33.07;;
18983;SDS011;9626;52.552;13.436;2023-02-11T10:40:57;48.97;;;31.47;;
18983;SDS011;9626;52.552;13.436;2023-02-11T10:43:25;49.00;;;32.47;;
18983;SDS011;9626;52.552;13.436;2023-02-11T10:45:54;53.60;;;32.13;;
18983;SDS011;9626;52.552;13.436;2023-02-11T10:51:24;48.67;;;30.33;;
18983;SDS011;9626;52.552;13.436;2023-02-11T10:56:50;48.97;;;33.00;;
18983;SDS011;9626;52.552;13.436;2023-02-11T10:59:27;51.17;;;32.57;;
18983;SDS011;9626;52.552;13.436;2023-02-11T11:01:56;51.67;;;32.30;;
18983;SDS011;9626;52.552;13.436;2023-02-11T11:06:54;51.33;;;30.43;;
18983;SDS011;9626;52.552;13.436;2023-02-11T11:09:28;53.53;;;32.10;;
18983;SDS011;9626;52.552;13.436;2023-02-11T11:14:53;49.30;;;30.33;;
18983;SDS011;9626;52.552;13.436;2023-02-11T11:17:21;46.47;;;28.70;;
18983;SDS011;9626;52.552;13.436;2023-02-11T11:19:47;43.23;;;28.87;;
18983;SDS011;9626;52.552;13.436;2023-02-11T11:22:19;45.20;;;30.00;;
18983;SDS011;9626;52.552;13.436;2023-02-11T11:24:47;45.87;;;28.07;;
18983;SDS011;9626;52.552;13.436;2023-02-11T11:27:26;45.33;;;25.83;;
18983;SDS011;9626;52.552;13.436;2023-02-11T11:29:54;49.00;;;28.97;;
18983;SDS011;9626;52.552;13.436;2023-02-11T11:32:22;42.07;;;27.47;;
18983;SDS011;9626;52.552;13.436;2023-02-11T11:34:52;43.73;;;28.00;;
18983;SDS011;9626;52.552;13.436;2023-02-11T11:37:25;39.80;;;23.50;;
18983;SDS011;9626;52.552;13.436;2023-02-11T11:39:58;39.07;;;24.53;;
18983;SDS011;9626;52.552;13.436;2023-02-11T11:42:33;37.57;;;24.80;;
18983;SDS011;9626;52.552;13.436;2023-02-11T11:45:01;41.43;;;25.37;;
18983;SDS011;9626;52.552;13.436;2023-02-11T11:52:59;35.17;;;23.73;;
18983;SDS011;9626;52.552;13.436;2023-02-11T11:55:37;37.43;;;22.77;;
18983;SDS011;9626;52.552;13.436;2023-02-11T11:58:12;34.03;;;22.97;;
18983;SDS011;9626;52.552;13.436;2023-02-11T12:09:03;36.83;;;22.77;;
18983;SDS011;9626;52.552;13.436;2023-02-11T12:17:42;33.27;;;20.37;;
18983;SDS011;9626;52.552;13.436;2023-02-11T12:20:16;37.70;;;21.70;;
18983;SDS011;9626;52.552;13.436;2023-02-11T12:23:01;29.33;;;19.10;;
18983;SDS011;9626;52.552;13.436;2023-02-11T12:28:27;32.43;;;20.40;;
18983;SDS011;9626;52.552;13.436;2023-02-11T12:36:31;29.80;;;17.80;;
18983;SDS011;9626;52.552;13.436;2023-02-11T12:42:08;24.80;;;16.50;;
18983;SDS011;9626;52.552;13.436;2023-02-11T12:53:29;27.77;;;16.60;;
18983;SDS011;9626;52.552;13.436;2023-02-11T12:57:10;26.47;;;15.50;;
18983;SDS011;9626;52.552;13.436;2023-02-11T12:59:42;24.37;;;15.80;;
18983;SDS011;9626;52.552;13.436;2023-02-11T13:05:03;24.83;;;17.00;;
18983;SDS011;9626;52.552;13.436;2023-02-11T13:07:40;25.07;;;16.07;;
18983;SDS011;9626;52.552;13.436;2023-02-11T13:12:38;21.53;;;15.57;;
18983;SDS011;9626;52.552;13.436;2023-02-11T13:15:31;21.17;;;14.40;;
18983;SDS011;9626;52.552;13.436;2023-02-11T13:18:03;24.77;;;16.40;;
18983;SDS011;9626;52.552;13.436;2023-02-11T13:20:35;24.23;;;16.40;;
18983;SDS011;9626;52.552;13.436;2023-02-11T13:26:04;23.70;;;15.67;;
18983;SDS011;9626;52.552;13.436;2023-02-11T13:28:44;23.20;;;14.30;;
18983;SDS011;9626;52.552;13.436;2023-02-11T13:31:18;21.70;;;14.73;;
18983;SDS011;9626;52.552;13.436;2023-02-11T13:33:45;21.07;;;14.90;;
18983;SDS011;9626;52.552;13.436;2023-02-11T13:38:49;21.37;;;14.87;;
18983;SDS011;9626;52.552;13.436;2023-02-11T13:41:19;23.07;;;15.23;;
18983;SDS011;9626;52.552;13.436;2023-02-11T13:44:00;25.13;;;15.43;;
18983;SDS011;9626;52.552;13.436;2023-02-11T13:46:27;22.57;;;14.17;;
18983;SDS011;9626;52.552;13.436;2023-02-11T13:49:16;20.50;;;14.20;;
18983;SDS011;9626;52.552;13.436;2023-02-11T13:51:48;18.93;;;14.43;;
18983;SDS011;9626;52.552;13.436;2023-02-11T13:59:48;22.23;;;14.30;;
18983;SDS011;9626;52.552;13.436;2023-02-11T14:02:23;19.00;;;13.37;;
18983;SDS011;9626;52.552;13.436;2023-02-11T14:10:59;19.07;;;12.03;;
18983;SDS011;9626;52.552;13.436;2023-02-11T14:13:34;16.27;;;13.17;;
18983;SDS011;9626;52.552;13.436;2023-02-11T14:16:02;18.23;;;13.20;;
18983;SDS011;9626;52.552;13.436;2023-02-11T14:23:53;18.17;;;13.07;;
18983;SDS011;9626;52.552;13.436;2023-02-11T14:29:32;20.33;;;13.20;;
18983;SDS011;9626;52.552;13.436;2023-02-11T14:38:06;16.67;;;10.70;;
18983;SDS011;9626;52.552;13.436;2023-02-11T14:43:26;16.80;;;11.20;;
18983;SDS011;9626;52.552;13.436;2023-02-11T14:46:05;13.70;;;9.93;;
18983;SDS011;9626;52.552;13.436;2023-02-11T14:48:33;11.60;;;9.80;;
18983;SDS011;9626;52.552;13.436;2023-02-11T14:51:05;15.17;;;11.03;;
18983;SDS011;9626;52.552;13.436;2023-02-11T14:53:35;14.40;;;10.43;;
18983;SDS011;9626;52.552;13.436;2023-02-11T14:56:02;16.07;;;10.63;;
18983;SDS011;9626;52.552;13.436;2023-02-11T14:58:46;13.20;;;10.37;;
18983;SDS011;9626;52.552;13.436;2023-02-11T15:01:28;14.47;;;10.53;;
18983;SDS011;9626;52.552;13.436;2023-02-11T15:03:57;14.07;;;9.20;;
18983;SDS011;9626;52.552;13.436;2023-02-11T15:09:20;13.10;;;10.37;;
18983;SDS011;9626;52.552;13.436;2023-02-11T15:11:52;13.57;;;10.53;;
18983;SDS011;9626;52.552;13.436;2023-02-11T15:14:24;13.77;;;10.50;;
18983;SDS011;9626;52.552;13.436;2023-02-11T15:16:52;14.30;;;11.60;;
18983;SDS011;9626;52.552;13.436;2023-02-11T15:19:34;13.00;;;9.83;;
18983;SDS011;9626;52.552;13.436;2023-02-11T15:22:04;12.37;;;10.63;;
18983;SDS011;9626;52.552;13.436;2023-02-11T15:24:35;11.00;;;9.37;;
18983;SDS011;9626;52.552;13.436;2023-02-11T15:29:37;12.23;;;10.07;;
18983;SDS011;9626;52.552;13.436;2023-02-11T15:34:34;13.47;;;10.77;;
18983;SDS011;9626;52.552;13.436;2023-02-11T15:37:01;11.73;;;9.90;;
18983;SDS011;9626;52.552;13.436;2023-02-11T15:39:33;12.27;;;10.37;;
18983;SDS011;9626;52.552;13.436;2023-02-11T15:42:15;12.83;;;9.77;;
18983;SDS011;9626;52.552;13.436;2023-02-11T15:44:44;13.67;;;9.97;;
18983;SDS011;9626;52.552;13.436;2023-02-11T15:47:11;12.73;;;9.47;;
18983;SDS011;9626;52.552;13.436;2023-02-11T15:49:44;11.57;;;9.40;;
18983;SDS011;9626;52.552;13.436;2023-02-11T15:52:11;13.60;;;9.13;;
18983;SDS011;9626;52.552;13.436;2023-02-11T15:54:39;11.77;;;9.57;;
18983;SDS011;9626;52.552;13.436;2023-02-11T15:57:10;11.37;;;8.63;;
18983;SDS011;9626;52.552;13.436;2023-02-11T15:59:38;11.87;;;9.30;;
18983;SDS011;9626;52.552;13.436;2023-02-11T16:08:11;12.67;;;9.07;;
18983;SDS011;9626;52.552;13.436;2023-02-11T16:10:51;10.43;;;8.80;;
18983;SDS011;9626;52.552;13.436;2023-02-11T16:13:20;11.10;;;8.97;;
18983;SDS011;9626;52.552;13.436;2023-02-11T16:15:53;10.20;;;8.40;;
18983;SDS011;9626;52.552;13.436;2023-02-11T16:18:24;11.60;;;8.43;;
18983;SDS011;9626;52.552;13.436;2023-02-11T16:21:18;10.07;;;8.40;;
18983;SDS011;9626;52.552;13.436;2023-02-11T16:23:52;9.17;;;7.77;;
18983;SDS011;9626;52.552;13.436;2023-02-11T16:26:23;11.93;;;9.43;;
18983;SDS011;9626;52.552;13.436;2023-02-11T16:28:50;10.37;;;8.00;;
18983;SDS011;9626;52.552;13.436;2023-02-11T16:31:16;11.30;;;7.80;;
18983;SDS011;9626;52.552;13.436;2023-02-11T16:33:43;10.13;;;8.40;;
18983;SDS011;9626;52.552;13.436;2023-02-11T16:36:14;12.27;;;8.57;;
18983;SDS011;9626;52.552;13.436;2023-02-11T16:38:41;9.17;;;8.03;;
18983;SDS011;9626;52.552;13.436;2023-02-11T16:41:08;11.00;;;8.03;;
18983;SDS011;9626;52.552;13.436;2023-02-11T16:43:38;10.33;;;7.83;;
18983;SDS011;9626;52.552;13.436;2023-02-11T16:46:05;9.87;;;8.87;;
18983;SDS011;9626;52.552;13.436;2023-02-11T16:48:31;9.87;;;7.80;;
18983;SDS011;9626;52.552;13.436;2023-02-11T16:50:57;10.27;;;7.83;;
18983;SDS011;9626;52.552;13.436;2023-02-11T16:53:23;9.27;;;7.63;;
18983;SDS011;9626;52.552;13.436;2023-02-11T16:55:50;8.83;;;7.27;;
18983;SDS011;9626;52.552;13.436;2023-02-11T16:58:17;9.07;;;7.83;;
18983;SDS011;9626;52.552;13.436;2023-02-11T17:00:44;7.77;;;6.97;;
18983;SDS011;9626;52.552;13.436;2023-02-11T17:03:20;7.17;;;6.43;;
18983;SDS011;9626;52.552;13.436;2023-02-11T17:05:48;7.30;;;6.10;;
18983;SDS011;9626;52.552;13.436;2023-02-11T17:08:15;8.47;;;7.07;;
18983;SDS011;9626;52.552;13.436;2023-02-11T17:10:41;7.67;;;6.87;;
18983;SDS011;9626;52.552;13.436;2023-02-11T17:13:07;10.57;;;7.63;;
18983;SDS011;9626;52.552;13.436;2023-02-11T17:15:33;8.00;;;7.03;;
18983;SDS011;9626;52.552;13.436;2023-02-11T17:17:59;8.67;;;7.30;;
18983;SDS011;9626;52.552;13.436;2023-02-11T17:20:25;7.83;;;6.67;;
18983;SDS011;9626;52.552;13.436;2023-02-11T17:22:51;7.70;;;6.67;;
18983;SDS011;9626;52.552;13.436;2023-02-11T17:25:17;7.40;;;6.70;;
18983;SDS011;9626;52.552;13.436;2023-02-11T17:27:43;7.80;;;7.00;;
18983;SDS011;9626;52.552;13.436;2023-02-11T17:30:11;7.97;;;6.73;;